Ana Sayfa
METAR-TAF:

METAR-TAF

Havaalanları :

Tennant Creek, Avustralya

Enlem: 19-38-04S, Boylam: 134-11-00E, yükseklik: 377 m

Güncel hava durumu gözlemi

Rapor saat 14:00 UTC de 1 saat ve 11 dakika önce yapıldı.
Rüzgar doğu/güneydoğudan 14 kt
Sıcaklık 29°C
Nem 11%
Basınç 1016 hPa
Görüş mesafesi 10 km veya daha fazla

METAR: YTNK 131400Z AUTO 12014KT 9999 // NCD 29/M04 Q1016

Saat: 00:41 (15:11 UTC)

Tahmin

Rapor saat 13:35 UTC de 1 saat ve 36 dakika önce yapıldı.
Ayın 13'si saat 14 UTC'den ayın 14'si saat 02 UTC'ye kadar geçerli Tahmin
Rüzgar doğu/güneydoğudan 10 kt
Görüş mesafesi 10 km veya daha fazla
1500 m altında bulut yok ve kümülonimbus yok
Ayın 13'si saat 2200 UTC'den
Rüzgar doğu/güneydoğudan 18 kt ve 28 kt'a kadar ani rüzgarlar
Görüş mesafesi 10 km veya daha fazla
1500 m altında bulut yok ve kümülonimbus yok

TAF: YTNK 131335Z 1314/1402 11010KT CAVOK FM132200 12018G28KT CAVOK

4.000'den fazla havaalanı için hava durumu gözlemleri ve tahminleri (METAR ve TAF raporları).

Kullanılabilir istasyonlar harita üzerinde sarı ve kırmızı noktalarla gösterilir.

İstasyonun adını görmek için fareyi noktanın üzerinde gezdirin.

Sonrasında hava gözlem ve tahminlerini görmek için tıklayın.

Haritayı değiştirmek için: yaklaştırmak için siyah artı işaretli yeşil düğmeye ve uzaklaştırmak için de eksi işaretli düğmeye hızla tıklayın; bitişik haritalar için yeşil okları kullanın.


METAR-TAF: